createdAt,value
2023-03-19T00:00:43.788Z,14.07
2023-03-19T00:05:54.379Z,18.08
2023-03-19T00:10:57.669Z,23.42
2023-03-19T00:16:01.625Z,18.10
2023-03-19T00:21:07.219Z,16.95
2023-03-19T00:31:16.538Z,15.27
2023-03-19T00:36:21.692Z,18.45
2023-03-19T00:41:25.085Z,19.02
2023-03-19T00:46:28.538Z,22.48
2023-03-19T00:51:33.201Z,17.50
2023-03-19T00:56:36.552Z,21.20
2023-03-19T01:01:39.921Z,17.05
2023-03-19T01:06:45.555Z,17.13
2023-03-19T01:16:52.328Z,13.40
2023-03-19T01:21:57.358Z,18.25
2023-03-19T01:27:01.505Z,19.35
2023-03-19T01:32:09.922Z,18.27
2023-03-19T01:37:34.282Z,16.63
2023-03-19T01:42:54.076Z,12.65
2023-03-19T01:48:27.004Z,24.35
2023-03-19T01:53:50.272Z,15.35
2023-03-19T01:59:05.245Z,19.33
2023-03-19T02:04:35.238Z,15.32
2023-03-19T02:09:41.130Z,16.75
2023-03-19T02:14:44.524Z,16.38
2023-03-19T02:19:55.313Z,17.52
2023-03-19T02:25:03.678Z,15.20
2023-03-19T02:30:23.850Z,17.00
2023-03-19T02:35:27.985Z,16.90
2023-03-19T02:40:35.493Z,21.67
2023-03-19T02:45:40.677Z,28.35
2023-03-19T02:50:43.933Z,20.33
2023-03-19T02:55:47.213Z,16.70
2023-03-19T03:00:52.804Z,14.40
2023-03-19T03:05:57.085Z,16.55
2023-03-19T03:11:00.336Z,15.68
2023-03-19T03:16:05.168Z,15.18
2023-03-19T03:21:08.485Z,18.53
2023-03-19T03:26:11.982Z,22.15
2023-03-19T03:31:16.977Z,18.88
2023-03-19T03:36:20.359Z,15.63
2023-03-19T03:41:23.644Z,14.43
2023-03-19T03:46:28.637Z,16.20
2023-03-19T03:51:32.955Z,16.47
2023-03-19T03:56:36.694Z,16.87
2023-03-19T04:01:41.424Z,15.65
2023-03-19T04:06:45.175Z,18.10
2023-03-19T04:12:02.300Z,15.07
2023-03-19T04:17:07.097Z,18.40
2023-03-19T04:22:10.507Z,17.93
2023-03-19T04:27:14.131Z,19.80
2023-03-19T04:32:19.189Z,17.05
2023-03-19T04:37:22.921Z,19.45
2023-03-19T04:42:33.120Z,16.47
2023-03-19T04:47:45.501Z,15.43
2023-03-19T04:52:49.750Z,16.95
2023-03-19T04:57:53.579Z,19.52
2023-03-19T05:03:03.536Z,16.75
2023-03-19T05:08:08.740Z,18.52
2023-03-19T05:13:12.625Z,17.63
2023-03-19T05:18:23.329Z,14.63
2023-03-19T05:23:26.762Z,19.35
2023-03-19T05:28:40.024Z,12.82
2023-03-19T05:33:44.861Z,17.42
2023-03-19T05:44:00.554Z,16.45
2023-03-19T05:49:25.942Z,14.25
2023-03-19T05:54:29.257Z,16.70
2023-03-19T05:59:42.685Z,16.25
2023-03-19T06:05:01.781Z,15.15
2023-03-19T06:10:08.247Z,19.95
2023-03-19T06:15:12.823Z,16.45
2023-03-19T06:20:23.084Z,19.90
2023-03-19T06:25:27.441Z,19.58
2023-03-19T06:30:31.404Z,18.52
2023-03-19T06:35:38.941Z,18.92
2023-03-19T06:40:42.676Z,18.70
2023-03-19T06:45:47.179Z,16.90
2023-03-19T06:50:51.810Z,17.40
2023-03-19T06:55:56.072Z,16.88
2023-03-19T07:00:59.875Z,16.37
2023-03-19T07:06:05.303Z,17.42
2023-03-19T07:11:08.930Z,15.05
2023-03-19T07:16:12.135Z,14.55
2023-03-19T07:21:17.135Z,18.30
2023-03-19T07:26:20.417Z,14.93
2023-03-19T07:31:24.559Z,14.48
2023-03-19T07:36:29.365Z,15.73
2023-03-19T07:41:32.942Z,18.20
2023-03-19T07:46:36.584Z,15.63
2023-03-19T07:51:41.233Z,21.27
2023-03-19T07:56:44.533Z,16.97
2023-03-19T08:01:48.343Z,24.65
2023-03-19T08:06:53.752Z,14.40
2023-03-19T08:11:57.030Z,12.90
2023-03-19T08:17:00.864Z,15.45
2023-03-19T08:22:06.215Z,17.70
2023-03-19T08:27:10.168Z,13.27
2023-03-19T08:32:13.905Z,12.18
2023-03-19T08:37:18.910Z,15.82
2023-03-19T08:42:23.057Z,11.02
2023-03-19T08:47:26.850Z,13.07
2023-03-19T08:52:32.287Z,11.57
2023-03-19T08:57:36.006Z,10.95
2023-03-19T09:02:40.391Z,10.50
2023-03-19T09:07:45.547Z,15.40
2023-03-19T09:12:48.883Z,13.00
2023-03-19T09:17:52.176Z,9.93
2023-03-19T09:22:56.844Z,13.90
2023-03-19T09:28:00.116Z,10.83
2023-03-19T09:33:03.406Z,10.40
2023-03-19T09:38:08.185Z,10.98
2023-03-19T09:43:40.891Z,15.57
2023-03-19T09:48:52.203Z,10.38
2023-03-19T09:53:59.441Z,11.85
2023-03-19T09:59:03.303Z,15.15
2023-03-19T10:04:25.786Z,12.02
2023-03-19T10:09:43.131Z,16.77
2023-03-19T10:15:15.290Z,13.32
2023-03-19T10:20:26.401Z,11.88
2023-03-19T10:25:34.318Z,10.98
2023-03-19T10:30:38.563Z,9.77
2023-03-19T10:35:45.943Z,13.43
2023-03-19T10:41:04.870Z,10.88
2023-03-19T10:46:13.943Z,9.00
2023-03-19T10:51:20.293Z,10.10
2023-03-19T10:56:27.739Z,9.77
2023-03-19T11:01:35.470Z,9.98
2023-03-19T11:06:42.189Z,10.95
2023-03-19T11:11:50.789Z,5.93
2023-03-19T11:16:58.976Z,9.90
2023-03-19T11:22:09.146Z,10.05
2023-03-19T11:27:13.900Z,7.47
2023-03-19T11:32:34.531Z,10.98
2023-03-19T11:37:54.471Z,7.18
2023-03-19T11:43:38.738Z,14.43
2023-03-19T11:49:07.657Z,10.00
2023-03-19T11:54:22.211Z,10.07
2023-03-19T11:59:47.078Z,5.38
2023-03-19T12:05:10.063Z,6.20
2023-03-19T12:10:31.306Z,9.98
2023-03-19T12:15:46.433Z,6.82
2023-03-19T12:21:00.738Z,6.90
2023-03-19T12:26:06.636Z,8.13
2023-03-19T12:31:28.217Z,9.35
2023-03-19T12:36:35.385Z,6.88
2023-03-19T12:41:43.491Z,8.45
2023-03-19T12:46:59.014Z,4.18
2023-03-19T12:52:10.107Z,7.95
2023-03-19T12:57:20.925Z,6.45
2023-03-19T13:02:32.064Z,4.97
2023-03-19T13:07:44.498Z,3.60
2023-03-19T13:12:51.382Z,4.03
2023-03-19T13:18:04.512Z,3.95
2023-03-19T13:23:09.549Z,2.58
2023-03-19T13:28:19.212Z,1.73
2023-03-19T13:33:24.822Z,6.30
2023-03-19T13:38:32.174Z,4.43
2023-03-19T13:43:54.590Z,2.42
2023-03-19T13:49:10.345Z,5.53
2023-03-19T13:54:18.437Z,3.67
2023-03-19T13:59:27.439Z,7.65
2023-03-19T14:04:33.682Z,5.32
2023-03-19T14:09:42.627Z,5.10
2023-03-19T14:14:49.219Z,5.50
2023-03-19T14:19:55.167Z,5.28
2023-03-19T14:25:14.424Z,4.68
2023-03-19T14:30:30.988Z,4.18
2023-03-19T14:35:40.355Z,4.68
2023-03-19T14:40:47.037Z,6.75
2023-03-19T14:45:58.987Z,5.75
2023-03-19T14:51:22.485Z,6.97
2023-03-19T14:56:28.267Z,3.47
2023-03-19T15:01:34.362Z,3.70
2023-03-19T15:06:42.560Z,2.80
2023-03-19T15:12:11.766Z,2.72
2023-03-19T15:17:21.954Z,4.03
2023-03-19T15:22:32.423Z,3.08
2023-03-19T15:27:36.273Z,3.75
2023-03-19T15:33:02.710Z,3.22
2023-03-19T15:38:10.147Z,3.47
2023-03-19T15:43:14.844Z,2.88
2023-03-19T15:48:22.966Z,3.13
2023-03-19T15:53:32.632Z,7.35
2023-03-19T15:58:41.700Z,4.88
2023-03-19T16:03:47.102Z,4.47
2023-03-19T16:08:54.233Z,5.10
2023-03-19T16:14:02.995Z,4.10
2023-03-19T16:19:06.507Z,4.57
2023-03-19T16:24:24.247Z,4.65
2023-03-19T16:29:28.964Z,11.23
2023-03-19T16:34:40.941Z,9.50
2023-03-19T16:39:56.008Z,7.60
2023-03-19T16:45:03.610Z,9.17
2023-03-19T16:50:07.964Z,3.90
2023-03-19T16:55:20.921Z,9.10
2023-03-19T17:00:26.291Z,9.25
2023-03-19T17:05:31.386Z,5.70
2023-03-19T17:10:38.564Z,4.45
2023-03-19T17:15:43.327Z,8.82
2023-03-19T17:20:52.200Z,7.00
2023-03-19T17:25:57.338Z,4.40
2023-03-19T17:31:00.929Z,4.22
2023-03-19T17:36:04.492Z,6.57
2023-03-19T17:41:16.865Z,4.38
2023-03-19T17:46:23.647Z,3.35
2023-03-19T17:51:27.671Z,3.80
2023-03-19T17:56:32.763Z,3.78
2023-03-19T18:01:36.669Z,6.05
2023-03-19T18:06:44.107Z,4.95
2023-03-19T18:11:48.845Z,4.53
2023-03-19T18:16:52.441Z,10.77
2023-03-19T18:21:56.137Z,8.88
2023-03-19T18:27:01.161Z,6.18
2023-03-19T18:32:07.675Z,10.90
2023-03-19T18:37:16.044Z,6.65
2023-03-19T18:42:21.113Z,5.25
2023-03-19T18:47:24.429Z,13.07
2023-03-19T18:52:27.794Z,7.78
2023-03-19T18:57:35.015Z,4.35
2023-03-19T19:02:38.637Z,7.90
2023-03-19T19:07:42.121Z,6.72
2023-03-19T19:12:59.749Z,6.47
2023-03-19T19:18:07.113Z,6.10
2023-03-19T19:23:11.406Z,6.28
2023-03-19T19:28:21.802Z,8.25
2023-03-19T19:33:28.766Z,6.97
2023-03-19T19:38:32.393Z,6.25
2023-03-19T19:43:37.136Z,11.05
2023-03-19T19:48:40.762Z,7.40
2023-03-19T19:53:44.117Z,8.82
2023-03-19T19:58:51.252Z,10.95
2023-03-19T20:03:54.885Z,10.50
2023-03-19T20:08:58.345Z,12.40
2023-03-19T20:14:03.094Z,13.02
2023-03-19T20:19:07.306Z,8.53
2023-03-19T20:24:10.950Z,10.02
2023-03-19T20:29:16.726Z,12.13
2023-03-19T20:34:36.420Z,7.38
2023-03-19T20:39:42.248Z,6.18
2023-03-19T20:44:47.380Z,4.97
2023-03-19T20:49:51.283Z,8.32
2023-03-19T20:54:54.841Z,5.75
2023-03-19T21:00:03.085Z,8.80
2023-03-19T21:05:07.827Z,11.43
2023-03-19T21:10:22.366Z,10.67
2023-03-19T21:15:27.475Z,7.60
2023-03-19T21:25:37.101Z,6.57
2023-03-19T21:30:45.869Z,5.30
2023-03-19T21:35:49.285Z,5.68
2023-03-19T21:40:55.443Z,3.95
2023-03-19T21:46:04.169Z,4.40
2023-03-19T21:51:16.323Z,3.35
2023-03-19T21:56:23.874Z,6.30
2023-03-19T22:01:28.500Z,4.32
2023-03-19T22:06:32.802Z,8.10
2023-03-19T22:11:38.176Z,11.57
2023-03-19T22:16:44.743Z,5.85
2023-03-19T22:21:49.510Z,5.55
2023-03-19T22:26:58.668Z,6.63
2023-03-19T22:32:03.677Z,7.20
2023-03-19T22:37:23.337Z,3.78
2023-03-19T22:42:28.038Z,6.00
2023-03-19T22:47:36.691Z,3.57
2023-03-19T22:52:40.290Z,10.95
2023-03-19T22:57:43.782Z,6.70
2023-03-19T23:02:54.725Z,5.05
2023-03-19T23:07:58.122Z,4.00
2023-03-19T23:13:01.754Z,4.95
2023-03-19T23:18:16.154Z,6.22
2023-03-19T23:23:19.722Z,6.60
2023-03-19T23:28:25.487Z,3.25
2023-03-19T23:33:31.262Z,6.25
2023-03-19T23:38:34.838Z,4.40
2023-03-19T23:43:38.119Z,4.53
2023-03-19T23:48:43.132Z,4.63
2023-03-19T23:53:47.087Z,3.28
2023-03-19T23:58:53.043Z,6.10
